Time;durP1;ratioP1;P1;durP2;ratioP2;P2;SDS_P1;SDS_P2;PMS_P1;PMS_P2;Temp;Humidity;BMP_temperature;BMP_pressure;BME280_temperature;BME280_humidity;BME280_pressure;Samples;Min_cycle;Max_cycle;Signal;HPM_P1;HPM_P2
2022/08/04 00:00:00;;;;;;;5.53;3.50;;;;;;;21.76;84.03;100951.53;5013398;28;20435;-71
2022/08/04 00:02:37;;;;;;;6.47;3.30;;;;;;;21.76;84.79;100954.31;5013280;28;20546;-71
2022/08/04 00:05:06;;;;;;;6.17;3.20;;;;;;;21.77;85.37;100951.16;5013407;28;20515;-71
2022/08/04 00:07:41;;;;;;;6.47;3.97;;;;;;;21.75;85.38;100955.47;5012938;28;20527;-71
2022/08/04 00:10:09;;;;;;;7.30;3.73;;;;;;;21.74;85.50;100945.63;5013216;28;20527;-71
2022/08/04 00:12:41;;;;;;;6.57;3.17;;;;;;;21.72;85.19;100942.41;5013314;28;20483;-72
2022/08/04 00:15:11;;;;;;;8.00;3.50;;;;;;;21.71;85.29;100938.06;5017063;28;20436;-71
2022/08/04 00:17:40;;;;;;;4.10;2.73;;;;;;;21.70;85.23;100948.31;5016969;28;20523;-71
2022/08/04 00:20:10;;;;;;;5.30;3.03;;;;;;;21.73;84.69;100938.47;5016573;28;21024;-71
2022/08/04 00:22:39;;;;;;;4.10;2.70;;;;;;;21.67;85.56;100947.06;5016810;28;20460;-71
2022/08/04 00:25:06;;;;;;;6.43;3.17;;;;;;;21.66;85.56;100936.41;5016909;28;20482;-71
2022/08/04 00:27:35;;;;;;;5.07;3.13;;;;;;;21.68;85.81;100936.81;5016503;28;20962;-71
2022/08/04 00:30:02;;;;;;;5.50;3.43;;;;;;;21.68;85.69;100945.09;5016487;28;20946;-71
2022/08/04 00:32:28;;;;;;;6.10;3.87;;;;;;;21.69;86.27;100941.16;5016673;28;20494;-70
2022/08/04 00:34:55;;;;;;;6.37;3.47;;;;;;;21.71;86.14;100946.34;5016584;28;20487;-70
2022/08/04 00:37:22;;;;;;;6.10;3.30;;;;;;;21.66;86.20;100939.97;5016387;28;21040;-70
2022/08/04 00:39:49;;;;;;;6.90;4.17;;;;;;;21.61;86.57;100945.78;5016784;28;20482;-71
2022/08/04 00:42:34;;;;;;;5.83;3.30;;;;;;;21.64;87.00;100944.25;5016267;28;20876;-71
2022/08/04 00:45:25;;;;;;;5.53;2.90;;;;;;;21.63;86.12;100942.66;5016533;28;20431;-70
2022/08/04 00:48:04;;;;;;;7.70;3.70;;;;;;;21.63;86.45;100948.16;5016233;28;20519;-71
2022/08/04 00:50:42;;;;;;;7.37;3.40;;;;;;;21.63;86.06;100939.91;5016475;28;20463;-70
2022/08/04 00:53:14;;;;;;;5.10;2.90;;;;;;;21.61;86.14;100940.28;5016051;28;20542;-70
2022/08/04 00:56:16;;;;;;;6.20;3.13;;;;;;;21.57;86.52;100933.09;5016292;28;20499;-71
2022/08/04 00:58:54;;;;;;;4.90;3.20;;;;;;;21.52;86.57;100938.94;5016272;28;20455;-71
2022/08/04 01:01:38;;;;;;;4.73;2.97;;;;;;;21.53;86.27;100933.03;5016900;28;20431;-70
2022/08/04 01:04:15;;;;;;;5.13;3.40;;;;;;;21.51;86.53;100937.31;5016588;28;20512;-72
2022/08/04 01:06:54;;;;;;;5.17;3.60;;;;;;;21.50;86.65;100932.97;5015961;28;20883;-71
2022/08/04 01:09:43;;;;;;;10.43;3.97;;;;;;;21.47;86.40;100942.78;5015910;28;20428;-71
2022/08/04 01:12:40;;;;;;;4.40;2.87;;;;;;;21.47;86.07;100941.97;5015793;28;20522;-69
2022/08/04 01:15:13;;;;;;;5.60;3.80;;;;;;;21.48;86.24;100947.13;5040832;22;20578;-73
2022/08/04 01:17:59;;;;;;;8.40;3.80;;;;;;;21.44;86.54;100945.47;5015615;28;20993;-74
2022/08/04 01:20:29;;;;;;;15.13;4.20;;;;;;;21.42;86.48;100948.56;5015563;28;20424;-72
2022/08/04 01:23:30;;;;;;;5.53;3.43;;;;;;;21.37;86.19;100946.91;5015686;28;20483;-74
2022/08/04 01:26:35;;;;;;;5.77;3.20;;;;;;;21.32;87.01;100949.97;5014410;28;20460;-73
2022/08/04 01:29:09;;;;;;;6.10;3.70;;;;;;;21.26;86.93;100945.09;4998073;28;20454;-73
2022/08/04 01:31:48;;;;;;;8.20;3.87;;;;;;;21.25;87.50;100949.00;5015286;28;20949;-73
2022/08/04 01:34:19;;;;;;;6.00;3.83;;;;;;;21.24;87.09;100959.22;5015353;28;20834;-73
2022/08/04 01:36:47;;;;;;;4.80;3.20;;;;;;;21.23;87.75;100952.13;5015328;28;20520;-73
2022/08/04 01:42:00;;;;;;;6.27;3.60;;;;;;;21.20;87.91;100946.53;5015205;28;20463;-73
2022/08/04 01:44:29;;;;;;;8.03;4.33;;;;;;;21.14;88.38;100946.84;5014902;28;20539;-72
2022/08/04 01:46:55;;;;;;;5.37;3.13;;;;;;;21.13;88.97;100942.50;5014931;28;20444;-72
2022/08/04 01:49:22;;;;;;;6.37;4.07;;;;;;;21.09;89.22;100943.59;5015219;28;20432;-72
2022/08/04 01:51:50;;;;;;;6.10;4.03;;;;;;;21.05;89.55;100942.72;5015279;28;20459;-72
2022/08/04 01:54:18;;;;;;;6.20;4.07;;;;;;;21.03;89.75;100945.84;5014989;28;20484;-72
2022/08/04 01:56:47;;;;;;;5.97;3.93;;;;;;;21.04;89.89;100943.91;5015075;28;20533;-72
2022/08/04 01:59:17;;;;;;;5.57;3.50;;;;;;;20.99;90.92;100935.94;5014689;28;20527;-72
2022/08/04 02:01:45;;;;;;;7.40;4.37;;;;;;;20.98;90.91;100931.56;5014578;28;20523;-72
2022/08/04 02:04:15;;;;;;;9.27;4.10;;;;;;;20.94;90.76;100937.03;5014937;28;20904;-72
2022/08/04 02:07:02;;;;;;;8.30;4.47;;;;;;;20.88;90.89;100933.72;5014946;28;20456;-72
2022/08/04 02:09:38;;;;;;;5.40;3.90;;;;;;;20.87;90.98;100937.66;5014605;28;20460;-72
2022/08/04 02:12:25;;;;;;;6.30;3.87;;;;;;;20.81;91.29;100933.59;5014833;28;20511;-72
2022/08/04 02:14:59;;;;;;;6.90;4.30;;;;;;;20.78;90.80;100931.56;5014256;28;20498;-72
2022/08/04 02:17:31;;;;;;;7.03;4.00;;;;;;;20.74;91.31;100929.91;5014421;28;20985;-73
2022/08/04 02:20:06;;;;;;;6.00;3.83;;;;;;;20.73;90.96;100928.31;5014654;28;20431;-72
2022/08/04 02:22:34;;;;;;;7.07;4.00;;;;;;;20.71;91.53;100927.88;5014627;28;20435;-73
2022/08/04 02:25:06;;;;;;;15.70;4.47;;;;;;;20.70;91.44;100929.03;5014507;28;20832;-72
2022/08/04 02:27:56;;;;;;;4.87;3.50;;;;;;;20.63;91.44;100926.94;5014525;28;20483;-73
2022/08/04 02:30:30;;;;;;;7.50;3.97;;;;;;;20.59;91.86;100928.81;5014455;28;20523;-72
2022/08/04 02:33:03;;;;;;;7.30;4.27;;;;;;;20.57;91.13;100925.59;5014197;28;20983;-73
2022/08/04 02:35:35;;;;;;;7.70;4.80;;;;;;;20.56;91.33;100918.50;5014255;28;20495;-72
2022/08/04 02:38:16;;;;;;;7.07;3.80;;;;;;;20.52;92.05;100918.44;5014369;28;20432;-77
2022/08/04 02:40:43;;;;;;;5.97;3.80;;;;;;;20.49;91.92;100910.88;5014332;28;20466;-74
2022/08/04 02:43:10;;;;;;;6.70;4.13;;;;;;;20.51;91.46;100905.03;5014402;28;20443;-75
2022/08/04 02:45:37;;;;;;;6.13;4.33;;;;;;;20.48;92.25;100911.25;5014076;28;20469;-72
2022/08/04 02:48:08;;;;;;;6.47;4.03;;;;;;;20.43;92.40;100909.56;5014137;28;20455;-71
2022/08/04 02:50:39;;;;;;;6.90;3.93;;;;;;;20.42;92.28;100911.50;5013876;28;20941;-71
2022/08/04 02:53:06;;;;;;;5.83;3.70;;;;;;;20.39;92.73;100916.94;5014133;28;20456;-72
2022/08/04 02:55:35;;;;;;;5.20;3.50;;;;;;;20.35;92.70;100905.84;5013927;28;20488;-71
2022/08/04 02:58:03;;;;;;;9.00;4.77;;;;;;;20.35;92.77;100914.09;5013687;28;21045;-71
2022/08/04 03:00:30;;;;;;;6.13;4.10;;;;;;;20.34;92.74;100908.97;5013987;28;20471;-71
2022/08/04 03:03:08;;;;;;;5.77;3.43;;;;;;;20.31;92.59;100906.91;5013898;28;20522;-71
2022/08/04 03:05:51;;;;;;;7.57;4.67;;;;;;;20.32;92.56;100911.25;5013559;28;20463;-71
2022/08/04 03:08:50;;;;;;;6.37;4.07;;;;;;;20.33;92.67;100910.13;5013853;28;20436;-72
2022/08/04 03:11:35;;;;;;;5.17;3.57;;;;;;;20.26;93.09;100919.00;5013799;28;20511;-71
2022/08/04 03:14:22;;;;;;;5.17;3.43;;;;;;;20.27;92.73;100912.34;5013448;28;20587;-71
2022/08/04 03:17:24;;;;;;;8.10;3.87;;;;;;;20.27;92.98;100909.59;5013442;28;20428;-71
2022/08/04 03:20:26;;;;;;;5.33;3.77;;;;;;;20.26;92.99;100916.25;5010681;28;20494;-71
2022/08/04 03:23:53;;;;;;;6.00;4.00;;;;;;;20.28;93.27;100902.94;5013639;28;20518;-71
2022/08/04 03:26:42;;;;;;;9.60;4.30;;;;;;;20.23;93.24;100911.50;4933791;29;20531;-71
2022/08/04 03:29:54;;;;;;;6.67;4.17;;;;;;;20.25;92.97;100917.41;5007045;28;20547;-73
2022/08/04 03:32:48;;;;;;;5.57;3.57;;;;;;;20.25;92.80;100917.41;5013589;28;20432;-71
2022/08/04 03:35:36;;;;;;;7.17;4.90;;;;;;;20.28;93.39;100911.22;5013420;28;20574;-71
2022/08/04 03:38:27;;;;;;;7.03;4.43;;;;;;;20.27;92.83;100912.34;5013480;28;20512;-71
2022/08/04 03:41:26;;;;;;;6.60;4.23;;;;;;;20.28;92.71;100913.16;5013448;28;20515;-71
2022/08/04 03:44:26;;;;;;;6.30;4.40;;;;;;;20.26;92.97;100909.97;5013358;28;20427;-71
2022/08/04 03:47:24;;;;;;;7.30;4.93;;;;;;;20.25;92.91;100914.66;5013295;28;20446;-71
2022/08/04 03:50:31;;;;;;;5.93;3.97;;;;;;;20.26;92.93;100910.75;5017059;28;20906;-71
2022/08/04 03:53:20;;;;;;;5.97;4.10;;;;;;;20.26;93.52;100907.19;5017127;28;20523;-71
2022/08/04 03:56:20;;;;;;;7.50;4.53;;;;;;;20.26;93.16;100898.94;5016901;28;21028;-71
2022/08/04 03:59:12;;;;;;;6.60;4.03;;;;;;;20.24;93.92;100904.81;5016987;28;20981;-71
2022/08/04 04:01:59;;;;;;;6.00;3.90;;;;;;;20.20;94.01;100903.94;4977193;28;20450;-71
2022/08/04 04:04:51;;;;;;;7.50;4.40;;;;;;;20.22;93.70;100909.06;5017314;28;20464;-71
2022/08/04 04:08:02;;;;;;;6.20;4.00;;;;;;;20.23;93.67;100899.66;5017195;28;20460;-71
2022/08/04 04:11:12;;;;;;;5.77;3.70;;;;;;;20.22;94.71;100895.31;4998034;28;20519;-73
2022/08/04 04:14:03;;;;;;;6.30;4.23;;;;;;;20.22;94.56;100895.31;5016905;28;20871;-73
2022/08/04 04:16:44;;;;;;;5.53;3.73;;;;;;;20.24;95.21;100896.56;4988327;28;20534;-74
2022/08/04 04:19:54;;;;;;;5.67;3.70;;;;;;;20.24;95.38;100899.31;5016840;28;20428;-73
2022/08/04 04:22:44;;;;;;;5.63;3.60;;;;;;;20.25;95.68;100898.16;5016798;28;20523;-73
2022/08/04 04:25:29;;;;;;;6.97;4.20;;;;;;;20.25;95.75;100909.16;5016915;28;20475;-73
2022/08/04 04:28:22;;;;;;;5.83;4.00;;;;;;;20.30;96.09;100897.88;5016829;28;20520;-73
2022/08/04 04:31:02;;;;;;;6.10;4.17;;;;;;;20.33;96.23;100901.88;5016770;28;20464;-73
2022/08/04 04:33:47;;;;;;;7.70;4.77;;;;;;;20.34;96.18;100903.47;5016689;28;20432;-73
2022/08/04 04:36:24;;;;;;;5.93;4.23;;;;;;;20.40;95.48;100905.56;5016690;28;20623;-73
2022/08/04 04:39:12;;;;;;;10.87;4.73;;;;;;;20.47;95.82;100912.41;5016553;28;20888;-74
2022/08/04 04:42:05;;;;;;;6.73;3.50;;;;;;;20.51;95.65;100913.31;5016601;28;20527;-73
2022/08/04 04:44:51;;;;;;;7.77;4.40;;;;;;;20.53;95.04;100908.22;5016109;28;20542;-73
2022/08/04 04:47:30;;;;;;;8.40;4.93;;;;;;;20.56;95.88;100913.81;5016163;28;20973;-73
2022/08/04 04:50:04;;;;;;;7.13;4.10;;;;;;;20.62;95.77;100917.06;5016378;28;20512;-73
2022/08/04 04:52:42;;;;;;;5.10;3.70;;;;;;;20.69;95.80;100914.47;5016329;28;20420;-74
2022/08/04 04:55:18;;;;;;;7.87;4.70;;;;;;;20.72;95.71;100916.50;5016102;28;20491;-72
2022/08/04 04:57:46;;;;;;;13.43;4.90;;;;;;;20.76;96.29;100917.38;5016284;28;20440;-75
2022/08/04 05:00:15;;;;;;;6.80;4.10;;;;;;;20.81;96.50;100919.06;5014600;28;20443;-75
2022/08/04 05:03:01;;;;;;;7.13;4.33;;;;;;;20.87;96.91;100918.38;5016139;28;20443;-76
2022/08/04 05:05:39;;;;;;;6.87;4.00;;;;;;;20.94;97.61;100919.66;5016469;28;20558;-76
2022/08/04 05:09:08;;;;;;;14.33;4.30;;;;;;;21.01;97.57;100917.88;5016694;28;20511;-70
2022/08/04 05:12:06;;;;;;;7.70;4.77;;;;;;;21.11;98.39;100919.22;4955323;29;20530;-73
2022/08/04 05:14:38;;;;;;;10.17;5.43;;;;;;;21.13;98.95;100930.69;4955176;28;21046;-76
2022/08/04 05:17:15;;;;;;;8.53;4.93;;;;;;;21.20;99.18;100919.78;4996864;28;20980;-77
2022/08/04 05:19:53;;;;;;;6.33;4.33;;;;;;;21.30;99.16;100924.72;5016230;28;20515;-76
2022/08/04 05:22:24;;;;;;;9.07;5.60;;;;;;;21.38;98.69;100920.97;5015867;28;20432;-76
2022/08/04 05:24:58;;;;;;;5.70;4.23;;;;;;;21.48;98.52;100924.28;5015998;28;20542;-75
2022/08/04 05:27:31;;;;;;;11.77;4.80;;;;;;;21.56;97.93;100928.72;5016264;28;20448;-78
2022/08/04 05:30:03;;;;;;;8.63;4.60;;;;;;;21.65;97.37;100923.78;5016394;28;20460;-74
2022/08/04 05:32:36;;;;;;;7.10;3.93;;;;;;;21.74;96.08;100921.59;5015330;28;20424;-75
2022/08/04 05:35:07;;;;;;;6.30;3.97;;;;;;;21.85;93.64;100919.78;5015524;28;20922;-76
2022/08/04 05:37:38;;;;;;;6.53;3.90;;;;;;;21.97;90.80;100918.00;5015594;28;20854;-74
2022/08/04 05:40:07;;;;;;;5.17;3.67;;;;;;;22.10;87.67;100925.69;5015357;28;20506;-73
2022/08/04 05:42:37;;;;;;;9.00;4.00;;;;;;;22.23;85.02;100926.31;5015820;28;20939;-77
2022/08/04 05:45:07;;;;;;;6.63;3.47;;;;;;;22.37;82.78;100922.97;5015883;28;20876;-76
2022/08/04 05:47:37;;;;;;;9.10;4.00;;;;;;;22.52;81.44;100923.94;5015951;28;20479;-77
2022/08/04 05:50:05;;;;;;;8.77;4.67;;;;;;;22.67;78.88;100922.97;5016283;28;20440;-77
2022/08/04 05:52:36;;;;;;;6.00;3.80;;;;;;;22.90;76.29;100920.91;5016030;28;20478;-76
2022/08/04 05:55:04;;;;;;;7.80;3.87;;;;;;;23.05;77.37;100927.41;5016455;28;20480;-77
2022/08/04 05:57:32;;;;;;;4.70;3.47;;;;;;;23.19;77.09;100928.72;5016012;28;21034;-77
2022/08/04 06:00:01;;;;;;;6.97;3.63;;;;;;;23.30;75.66;100926.88;5017098;28;20472;-77
2022/08/04 06:02:30;;;;;;;7.17;3.97;;;;;;;23.42;77.05;100930.16;5016410;28;20458;-77
2022/08/04 06:05:00;;;;;;;5.57;3.53;;;;;;;23.50;77.19;100935.75;5016389;28;20495;-77
2022/08/04 06:07:27;;;;;;;4.23;2.73;;;;;;;23.57;76.33;100935.84;5016189;28;20483;-77
2022/08/04 06:09:54;;;;;;;7.83;3.37;;;;;;;23.65;75.56;100929.22;5015979;28;20539;-77
2022/08/04 06:12:25;;;;;;;7.13;3.83;;;;;;;23.73;75.71;100936.41;5015676;28;20442;-77
2022/08/04 06:14:55;;;;;;;4.80;3.13;;;;;;;23.81;74.28;100940.81;5016271;28;20519;-77
2022/08/04 06:17:25;;;;;;;6.20;3.90;;;;;;;23.90;74.49;100932.19;5016327;28;20432;-77
2022/08/04 06:19:54;;;;;;;5.33;3.90;;;;;;;23.98;73.75;100928.28;5016261;28;20472;-77
2022/08/04 06:22:24;;;;;;;7.37;3.20;;;;;;;24.07;72.02;100931.53;5015505;28;20440;-77
2022/08/04 06:24:53;;;;;;;7.10;3.40;;;;;;;24.20;69.29;100936.75;5015843;28;20495;-77
2022/08/04 06:27:21;;;;;;;5.70;3.90;;;;;;;24.32;68.30;100926.16;5015610;28;20520;-77
2022/08/04 06:29:50;;;;;;;6.07;3.30;;;;;;;24.41;67.67;100939.69;5015293;28;20448;-77
2022/08/04 06:32:27;;;;;;;4.53;3.03;;;;;;;24.51;67.19;100941.72;5015612;28;20450;-78
2022/08/04 06:34:56;;;;;;;5.07;2.63;;;;;;;24.61;65.75;100941.00;5015154;28;20487;-77
2022/08/04 06:37:26;;;;;;;4.13;2.37;;;;;;;24.74;65.32;100943.41;5015892;28;20451;-77
2022/08/04 06:39:53;;;;;;;4.80;3.00;;;;;;;24.87;62.10;100939.91;5015587;28;20474;-77
2022/08/04 06:42:22;;;;;;;4.33;2.80;;;;;;;25.04;61.30;100948.69;5014975;28;20907;-77
2022/08/04 06:44:50;;;;;;;5.67;2.93;;;;;;;25.18;61.58;100940.44;5014864;28;20547;-77
2022/08/04 06:47:19;;;;;;;7.10;3.80;;;;;;;25.41;56.89;100946.44;5014455;28;20472;-77
2022/08/04 06:49:48;;;;;;;5.70;3.57;;;;;;;25.67;55.91;100950.81;5015037;28;21073;-76
2022/08/04 06:52:16;;;;;;;7.07;3.97;;;;;;;25.81;58.70;100947.28;5014973;28;20961;-77
2022/08/04 06:54:45;;;;;;;5.37;3.40;;;;;;;25.91;55.78;100945.72;5014928;28;20467;-77
2022/08/04 06:57:14;;;;;;;7.97;4.60;;;;;;;26.11;52.98;100943.28;5015001;28;20466;-77
2022/08/04 06:59:42;;;;;;;8.00;4.77;;;;;;;26.32;52.11;100948.03;5015167;28;20472;-77
2022/08/04 07:02:14;;;;;;;8.33;5.07;;;;;;;26.44;53.72;100944.06;5015041;28;21001;-77
2022/08/04 07:04:42;;;;;;;8.90;5.30;;;;;;;26.44;58.07;100944.06;5014456;28;20471;-76
2022/08/04 07:07:09;;;;;;;12.13;6.03;;;;;;;26.42;61.01;100939.66;5014936;28;20896;-77
2022/08/04 07:09:36;;;;;;;22.20;8.20;;;;;;;26.40;59.62;100942.06;5014647;28;20891;-77
2022/08/04 07:12:05;;;;;;;17.47;7.10;;;;;;;26.46;54.67;100934.13;5015457;28;20455;-77
2022/08/04 07:14:35;;;;;;;13.30;8.00;;;;;;;26.60;54.89;100931.28;5016267;28;20554;-76
2022/08/04 07:17:03;;;;;;;12.10;7.37;;;;;;;26.62;57.95;100930.91;5015143;28;20499;-77
2022/08/04 07:19:31;;;;;;;16.60;8.17;;;;;;;26.67;56.13;100938.84;5014689;28;20455;-77
2022/08/04 07:21:58;;;;;;;14.47;8.90;;;;;;;26.88;53.22;100943.53;5013973;28;20950;-77
2022/08/04 07:24:29;;;;;;;14.50;7.80;;;;;;;27.14;50.58;100936.66;5014424;28;20470;-77
2022/08/04 07:26:56;;;;;;;13.80;7.73;;;;;;;27.30;52.10;100934.16;5015173;28;20431;-77
2022/08/04 07:29:24;;;;;;;12.07;7.50;;;;;;;27.32;55.75;100925.44;5016152;28;20528;-78
2022/08/04 07:31:51;;;;;;;16.70;8.27;;;;;;;27.24;58.25;100937.78;5015895;28;20535;-78
2022/08/04 07:34:19;;;;;;;13.80;7.50;;;;;;;27.16;58.03;100926.69;5015440;28;20551;-78
2022/08/04 07:36:46;;;;;;;14.77;7.07;;;;;;;27.14;56.06;100931.91;5015131;28;20574;-78
2022/08/04 07:39:13;;;;;;;12.63;7.53;;;;;;;27.24;54.50;100929.44;5015481;28;20874;-78
2022/08/04 07:41:42;;;;;;;14.83;7.23;;;;;;;27.25;54.93;100926.25;5014935;28;20531;-77
2022/08/04 07:44:09;;;;;;;13.10;5.30;;;;;;;27.28;56.92;100919.09;5016024;28;20567;-77
2022/08/04 07:46:37;;;;;;;6.60;4.60;;;;;;;27.22;58.54;100934.63;5015206;28;20934;-78
2022/08/04 07:49:05;;;;;;;6.53;4.27;;;;;;;27.24;57.67;100930.25;5015090;28;20535;-78
2022/08/04 07:51:34;;;;;;;9.80;3.83;;;;;;;27.29;55.17;100927.03;5014887;28;20447;-77
2022/08/04 07:54:02;;;;;;;4.43;2.90;;;;;;;27.34;52.99;100918.25;5015155;28;20484;-78
2022/08/04 07:56:29;;;;;;;6.10;3.30;;;;;;;27.49;50.09;100920.91;5014729;28;20519;-78
2022/08/04 07:58:56;;;;;;;4.77;2.63;;;;;;;27.68;50.08;100925.97;5014762;28;20547;-77
2022/08/04 08:01:24;;;;;;;4.50;2.90;;;;;;;27.87;50.20;100928.19;5017432;28;20473;-78
2022/08/04 08:03:53;;;;;;;3.80;2.47;;;;;;;28.00;49.95;100927.69;5014015;28;20552;-77
2022/08/04 08:06:20;;;;;;;5.83;3.33;;;;;;;28.10;47.37;100918.44;5013823;28;20526;-77
2022/08/04 08:08:47;;;;;;;4.53;2.90;;;;;;;28.38;47.45;100915.38;5013721;28;20454;-77
2022/08/04 08:11:14;;;;;;;4.00;2.50;;;;;;;28.47;50.34;100920.47;5013777;28;20530;-76
2022/08/04 08:13:42;;;;;;;4.60;2.70;;;;;;;28.60;48.93;100913.16;5013484;28;20543;-77
2022/08/04 08:16:09;;;;;;;5.93;3.63;;;;;;;28.70;50.01;100922.56;5013669;28;21035;-77
2022/08/04 08:18:36;;;;;;;3.30;2.60;;;;;;;28.71;50.54;100921.38;5013501;28;20531;-77
2022/08/04 08:21:04;;;;;;;4.87;2.37;;;;;;;28.71;50.43;100915.78;5013565;28;20448;-77
2022/08/04 08:23:34;;;;;;;3.40;2.23;;;;;;;28.76;49.16;100909.75;5013020;28;20505;-77
2022/08/04 08:26:01;;;;;;;4.70;2.60;;;;;;;28.83;51.02;100906.88;5013122;28;20548;-77
2022/08/04 08:28:28;;;;;;;4.50;2.63;;;;;;;28.85;48.46;100912.81;5013290;28;20531;-77
2022/08/04 08:30:55;;;;;;;6.60;2.47;;;;;;;28.91;48.84;100907.56;5013250;28;20484;-77
2022/08/04 08:33:22;;;;;;;4.13;2.23;;;;;;;28.99;49.86;100908.28;5013942;28;20439;-77
2022/08/04 08:35:56;;;;;;;4.60;2.37;;;;;;;28.99;49.89;100911.84;5017295;28;21065;-77
2022/08/04 08:38:35;;;;;;;3.70;2.17;;;;;;;29.03;49.60;100903.44;5018353;28;20440;-77
2022/08/04 08:41:19;;;;;;;3.63;1.87;;;;;;;29.09;49.84;100902.56;5017447;28;20811;-77
2022/08/04 08:44:04;;;;;;;4.70;2.33;;;;;;;29.16;49.20;100896.06;5017205;28;20430;-77
2022/08/04 08:47:01;;;;;;;4.13;2.37;;;;;;;29.18;47.39;100902.03;5016656;28;20467;-77
2022/08/04 08:49:54;;;;;;;3.63;2.00;;;;;;;29.36;46.43;100907.34;5017103;28;20527;-77
2022/08/04 08:52:39;;;;;;;4.67;2.37;;;;;;;29.46;47.47;100903.59;5017283;28;20443;-77
2022/08/04 08:55:18;;;;;;;4.27;2.30;;;;;;;29.51;48.12;100905.88;5017526;28;20821;-77
2022/08/04 08:58:03;;;;;;;5.53;2.47;;;;;;;29.65;45.45;100891.72;5016689;28;20881;-77
2022/08/04 09:00:42;;;;;;;4.17;2.43;;;;;;;30.00;42.23;100903.47;5016742;28;20512;-77
2022/08/04 09:03:41;;;;;;;3.67;2.03;;;;;;;30.22;44.18;100895.50;5017551;28;20432;-77
2022/08/04 09:06:32;;;;;;;4.97;2.57;;;;;;;30.29;43.21;100897.41;5017579;28;20714;-77
2022/08/04 09:09:25;;;;;;;4.13;2.90;;;;;;;30.36;43.98;100898.03;5015583;28;20549;-77
2022/08/04 09:12:02;;;;;;;3.57;1.90;;;;;;;30.40;44.66;100898.75;5009870;28;20915;-77
2022/08/04 09:14:39;;;;;;;4.53;2.00;;;;;;;30.57;41.74;100898.81;5016422;28;20855;-77
2022/08/04 09:17:18;;;;;;;4.83;2.20;;;;;;;30.81;40.38;100905.13;5017502;28;20475;-78
2022/08/04 09:19:52;;;;;;;3.87;2.00;;;;;;;30.96;41.53;100906.41;5017135;28;20483;-78
2022/08/04 09:22:25;;;;;;;4.20;2.40;;;;;;;30.98;40.39;100908.75;5016554;28;20518;-77
2022/08/04 09:25:00;;;;;;;4.10;1.60;;;;;;;31.02;40.58;100901.06;5017206;28;20504;-77
2022/08/04 09:27:39;;;;;;;4.07;1.80;;;;;;;31.06;40.27;100904.56;5017108;28;20490;-77
2022/08/04 09:30:08;;;;;;;6.93;2.47;;;;;;;31.27;38.79;100894.91;5016300;28;20502;-77
2022/08/04 09:32:41;;;;;;;12.30;2.23;;;;;;;31.47;39.47;100897.63;5015891;28;21001;-77
2022/08/04 09:35:23;;;;;;;3.80;1.87;;;;;;;31.59;38.84;100899.75;5016739;28;20472;-77
2022/08/04 09:38:00;;;;;;;2.90;1.40;;;;;;;31.61;39.26;100898.09;5016900;28;20456;-77
2022/08/04 09:40:32;;;;;;;3.00;1.50;;;;;;;31.65;38.42;100898.78;5016337;28;20519;-77
2022/08/04 09:43:09;;;;;;;2.93;1.50;;;;;;;31.69;39.06;100881.88;5016607;28;20424;-77
2022/08/04 09:45:41;;;;;;;3.10;1.63;;;;;;;31.74;38.08;100892.53;5015697;28;20877;-77
2022/08/04 09:48:12;;;;;;;4.00;2.20;;;;;;;31.76;39.57;100892.91;5016340;28;20435;-77
2022/08/04 09:50:42;;;;;;;3.90;1.80;;;;;;;31.83;39.95;100887.16;5016798;28;20436;-77
2022/08/04 09:53:24;;;;;;;4.53;1.93;;;;;;;31.99;37.10;100888.34;5016923;28;20444;-77
2022/08/04 09:56:00;;;;;;;3.20;1.70;;;;;;;32.11;37.41;100890.41;5016937;28;20526;-78
2022/08/04 09:58:44;;;;;;;3.93;1.90;;;;;;;32.15;38.96;100885.50;5016623;28;20596;-77
2022/08/04 10:01:16;;;;;;;2.80;1.50;;;;;;;32.11;39.87;100876.41;5017016;28;20512;-78
2022/08/04 10:03:48;;;;;;;3.20;1.80;;;;;;;32.20;39.71;100882.16;5016467;28;20435;-77
2022/08/04 10:06:45;;;;;;;4.13;2.33;;;;;;;32.28;39.82;100872.31;5016859;28;20527;-78
2022/08/04 10:09:29;;;;;;;2.70;1.30;;;;;;;32.39;40.61;100880.44;5016479;28;20543;-78
2022/08/04 10:12:17;;;;;;;3.40;1.60;;;;;;;32.47;39.04;100878.22;5016924;28;20502;-78
2022/08/04 10:14:53;;;;;;;3.20;1.80;;;;;;;32.52;38.55;100877.66;5016911;28;20484;-78
2022/08/04 10:17:30;;;;;;;3.77;2.00;;;;;;;32.56;34.78;100878.34;5017429;28;20475;-78
2022/08/04 10:20:04;;;;;;;4.30;2.30;;;;;;;32.64;38.06;100866.47;5016366;28;20463;-79
2022/08/04 10:22:37;;;;;;;4.27;2.20;;;;;;;32.77;37.14;100860.88;5016552;28;20482;-77
2022/08/04 10:25:17;;;;;;;3.20;1.47;;;;;;;32.84;39.34;100862.66;5017087;28;20464;-78
2022/08/04 10:27:48;;;;;;;3.00;1.93;;;;;;;33.01;35.57;100858.53;5017007;28;20523;-78
2022/08/04 10:30:18;;;;;;;4.67;2.07;;;;;;;33.15;37.21;100862.91;5016183;28;20432;-78
2022/08/04 10:32:53;;;;;;;4.07;2.00;;;;;;;33.26;36.17;100859.75;5016499;28;20523;-77
2022/08/04 10:35:22;;;;;;;6.00;4.00;;;;;;;33.52;35.80;100860.53;5015515;28;20598;-77
2022/08/04 10:38:00;;;;;;;22.57;12.07;;;;;;;33.73;35.65;100875.84;5015783;28;20484;-78
2022/08/04 10:40:39;;;;;;;28.00;14.10;;;;;;;33.83;35.93;100858.63;5017110;28;20428;-78
2022/08/04 10:43:12;;;;;;;21.57;13.20;;;;;;;33.83;34.26;100867.06;5016690;28;20475;-77
2022/08/04 10:45:44;;;;;;;17.30;11.27;;;;;;;33.95;36.56;100861.81;5015898;28;20477;-77
2022/08/04 10:48:23;;;;;;;9.27;5.20;;;;;;;34.07;35.39;100861.03;5016216;28;20436;-78
2022/08/04 10:51:02;;;;;;;13.53;5.47;;;;;;;34.12;35.30;100852.78;5016760;28;20424;-78
2022/08/04 10:53:30;;;;;;;8.40;3.50;;;;;;;34.21;35.27;100849.25;5014408;28;20515;-73
2022/08/04 10:56:09;;;;;;;9.63;2.30;;;;;;;34.37;35.56;100851.06;5013989;28;20502;-73
2022/08/04 10:58:41;;;;;;;7.20;2.90;;;;;;;34.39;34.61;100849.34;5014151;28;20511;-74
2022/08/04 11:01:16;;;;;;;4.23;2.60;;;;;;;34.53;36.27;100836.84;5014050;28;20519;-74
2022/08/04 11:03:49;;;;;;;5.37;2.90;;;;;;;34.69;35.64;100837.81;5013880;28;20436;-73
2022/08/04 11:06:18;;;;;;;7.13;3.40;;;;;;;34.80;34.47;100843.84;5013913;28;20439;-72
2022/08/04 11:08:50;;;;;;;7.37;4.40;;;;;;;34.98;32.86;100837.50;5013330;28;20460;-72
2022/08/04 11:11:24;;;;;;;6.00;3.80;;;;;;;35.15;33.85;100827.53;5013788;28;20544;-73
2022/08/04 11:13:58;;;;;;;6.57;4.23;;;;;;;35.35;36.17;100822.25;5013604;28;20519;-73
2022/08/04 11:16:30;;;;;;;5.80;3.60;;;;;;;35.41;34.63;100830.09;5013764;28;20559;-73
2022/08/04 11:19:07;;;;;;;6.83;4.23;;;;;;;35.54;34.17;100828.72;5013569;28;20484;-73
2022/08/04 11:21:42;;;;;;;9.30;5.10;;;;;;;35.74;34.66;100830.31;5013831;28;20509;-72
2022/08/04 11:24:22;;;;;;;7.50;5.30;;;;;;;35.96;33.99;100821.72;5013661;28;20550;-73
2022/08/04 11:26:56;;;;;;;7.70;4.70;;;;;;;36.32;33.46;100823.69;5013369;28;20507;-72
2022/08/04 11:29:28;;;;;;;7.27;4.40;;;;;;;36.78;33.60;100824.31;5013590;28;20464;-73
2022/08/04 11:32:00;;;;;;;36.33;17.63;;;;;;;37.04;31.52;100826.72;5013625;28;20861;-72
2022/08/04 11:34:27;;;;;;;26.57;18.80;;;;;;;37.33;32.70;100838.16;5013456;28;20468;-72
2022/08/04 11:37:02;;;;;;;34.47;23.70;;;;;;;37.61;30.34;100833.13;5013390;28;20574;-72
2022/08/04 11:39:33;;;;;;;27.73;18.23;;;;;;;37.72;31.68;100829.75;5013136;28;20523;-74
2022/08/04 11:42:08;;;;;;;29.90;17.43;;;;;;;37.94;31.18;100837.09;5013454;28;21001;-78
2022/08/04 11:44:43;;;;;;;31.77;20.30;;;;;;;38.17;31.55;100835.47;5013492;28;20464;-76
2022/08/04 11:47:21;;;;;;;20.13;13.33;;;;;;;38.22;29.54;100841.25;5014430;28;20464;-79
2022/08/04 11:49:55;;;;;;;17.77;12.43;;;;;;;38.26;30.57;100844.66;5013614;28;20439;-77
2022/08/04 11:52:24;;;;;;;22.77;12.20;;;;;;;38.28;31.36;100830.00;5013927;28;20924;-77
2022/08/04 11:54:51;;;;;;;19.03;9.83;;;;;;;38.17;29.19;100836.25;5013497;28;20542;-77
2022/08/04 11:57:18;;;;;;;10.60;6.40;;;;;;;38.17;29.55;100839.09;5013046;28;20574;-76
2022/08/04 11:59:47;;;;;;;18.67;10.13;;;;;;;37.99;31.68;100836.44;5013850;28;20483;-78
2022/08/04 12:02:36;;;;;;;20.47;13.17;;;;;;;38.04;29.27;100835.75;5014252;28;20546;-77
2022/08/04 12:05:08;;;;;;;17.07;11.47;;;;;;;38.15;29.57;100833.13;5014680;28;20500;-78
2022/08/04 12:08:01;;;;;;;19.30;12.37;;;;;;;38.49;32.58;100822.41;5014464;28;20950;-77